Lawrence, Kansas
Current Conditions -  °F | °C
As of 9:10 PM on Sunday 21 Dec 2014 (Local Time) from KLWC Reporting Station
Overcast Overcast  
Wind Chill: 38°   Ceiling: 1600
Heat Index: 44°   Visibility: 7mi
Dew Point: 40°   Wind: 12mph
Humidity: 85%   Direction: 160°SSE
Pressure: 29.76"   Gusts: NA
Location:  38.97°N, 95.24°W
Report Text: KLWC 220310Z AUTO 16010KT 7SM OVC016 07/04 A2976 RMK AO2 T00670044
Loading
Personal Weather Stations






























Interactive Weather Map New forecast layout! Learn more

10-Day Weather Forecast

Advertisements
Track Severe Weather on mobile